• Join FlightAware (Why Join?)
  • Login
  • US Flag 
06:47AM EDT


 

Airport Tracker/Info


-or-


 

Live Flight TrackerFlight Track Log ✈ AM322 ✈ 23-Jun-2013 ✈ YLEG - YMEN / MEB

Flight Track Log - Related Links

Times and Time Zones

All times are in EDT time to prevent confusion due to time zone crossing. See the AM322 flight status page for this flight to view local times or setup timezone preferences in your user account.

Time Position Orientation Groundspeed Altitude Reporting Facility
EDT Latitude Longitude Course Direction KTS MPH feet Rate Location/Type
02:23AM -38.5159 145.8518 306° West 168 193 5,100  Level Aus ATC (RADAR)
02:24AM -38.4900 145.8070 309° West 162 186 6,200 1,080 Climbing FlightAware
02:24AM -38.4810 145.7980 322° Northwest 171 197 6,500 1,020 Climbing FlightAware
02:25AM -38.4650 145.7800 319° Northwest 185 213 7,000 1,020 Climbing FlightAware
02:25AM -38.4460 145.7600 320° Northwest 188 216 7,500 1,320 Climbing FlightAware
02:26AM -38.4280 145.7410 320° Northwest 185 213 8,200 1,320 Climbing FlightAware
02:26AM -38.4090 145.7210 320° Northwest 184 212 8,700 1,260 Climbing FlightAware
02:27AM -38.3860 145.6960 320° Northwest 187 215 9,500 960 Climbing FlightAware
02:27AM -38.3720 145.6820 322° Northwest 204 235 9,600 240 Climbing FlightAware
02:28AM -38.3490 145.6580 321° Northwest 217 250 9,700 720 Climbing FlightAware
02:28AM -38.3161 145.6255 321° Northwest 214 246 10,500 420 Climbing Aus ATC (RADAR)
02:28AM -38.3190 145.6270 321° Northwest 225 259 10,000 -180 Descending FlightAware
02:29AM -38.2882 145.5939 321° Northwest 226 260 10,400  Climbing Aus ATC (RADAR)
02:29AM -38.2860 145.5920 321° Northwest 235 270 10,000  Descending FlightAware
02:30AM -38.2450 145.5500 321° Northwest 236 272 10,400  Climbing Aus ATC (RADAR)
02:30AM -38.2420 145.5460 321° Northwest 240 276 10,000 -600 Descending FlightAware
02:30AM -38.2120 145.5150 321° Northwest 241 277 10,000 240 Level FlightAware
02:31AM -38.1678 145.4692 321° Northwest 236 272 10,400  Climbing Aus ATC (RADAR)
02:32AM -38.1600 145.4600 321° Northwest 231 266 10,000 -360 Descending FlightAware
02:32AM -38.1130 145.4110 321° Northwest 235 270 10,000 300 Level FlightAware
02:33AM -38.0792 145.3770 321° Northwest 232 267 10,400  Climbing Aus ATC (RADAR)
02:33AM -38.0740 145.3720 321° Northwest 235 270 10,000 -1,500 Descending FlightAware
02:33AM -38.0530 145.3500 320° Northwest 250 288 9,600 -1,140 Descending FlightAware
02:34AM -38.0250 145.3210 321° Northwest 250 288 9,000 -900 Descending FlightAware
02:34AM -38.0050 145.3040 326° Northwest 241 277 8,800 -960 Descending FlightAware
02:35AM -37.9750 145.2840 326° Northwest 255 293 8,200 -1,020 Descending FlightAware
02:35AM -37.9604 145.2738 326° Northwest 253 291 8,200 -1,620 Level Aus ATC (RADAR)
02:35AM -37.9330 145.2550 331° Northwest 259 298 7,100 -1,920 Descending FlightAware
02:36AM -37.9010 145.2340 333° Northwest 258 297 6,400 -1,500 Descending FlightAware
02:36AM -37.8850 145.2230 332° Northwest 256 295 6,000 -1,500 Descending FlightAware
02:37AM -37.8600 145.2060 332° Northwest 237 273 5,400 -1,440 Descending FlightAware
02:37AM -37.8330 145.1870 331° Northwest 223 257 4,700 -1,500 Descending FlightAware
02:38AM -37.8050 145.1690 333° Northwest 220 253 3,900 -1,500 Descending FlightAware
02:38AM -37.7830 145.1540 332° Northwest 208 239 3,300 -1,380 Descending FlightAware
02:38AM -37.7560 145.1570 North 197 227 2,700 -1,140 Descending FlightAware
02:39AM -37.7470 145.1590 10° North 197 227 2,600 -240 Descending FlightAware
02:39AM -37.7330 145.1500 333° Northwest 174 200 2,600  Level FlightAware
02:39AM -37.7280 145.1360 294° West 165 190 2,600  Level FlightAware
02:40AM -37.7240 145.1140 283° West 143 165 2,600 120 Level FlightAware
02:41AM -37.7263 145.0666 283° West 131 151 2,800 -240 Climbing Aus ATC (RADAR)
02:41AM -37.7281 145.0373 266° West 142 163 2,300 -1,020 Descending Aus ATC (RADAR)
02:42AM -37.7280 145.0160 266° West 142 163 1,500 -1,200 Descending FlightAware
02:42AM -37.7290 144.9840 268° West 135 155 1,000 -1,020 Descending FlightAware
02:43AM -37.7300 144.9600 267° West 129 148 600 -840 Descending FlightAware
02:43AM -37.7310 144.9500 263° West 124 143 400 -600 Descending FlightAware
02:44AM -37.7300 144.9330 274° West 105 121 200 -480 Descending FlightAware
02:44AM -37.7310 144.9160 266° West 89 102 -420 Descending FlightAware
02:44AM -37.7310 144.9060 270° West 75 86  Level FlightAware
02:45AM -37.7310 144.9000 270° West 11 13  Level FlightAware
02:45AM -37.7300 144.9000 360° North 12 14  Level FlightAware